Napa, CA

10:31 AM PST on January 30, 2015 (GMT -0800)
Old Soda Springs Rd 850 ft | Change Station
CLOSE
Current Station
Personal Weather Station
Location: Napa, CA
Elevation: 846 ft
Nearby Weather Stations
Active Advisory: Dense Fog Advisory Active Notice: Record Report

Elev 846 ft 38.38 °N, 122.27 °W | Updated 47 seconds ago

Partly Cloudy
Partly Cloudy
55.5 °F
Feels Like 55.5 °F
N
0.0
Wind Variable Wind from ESE
Gusts 0.0 mph

Today
High -- | Low -- °F
--% Chance of Precip.
Yesterday
High -- | Low -- °F
Precip. -- in
7:16 AM 5:29 PM
Waxing Gibbous, 84% visible
Pressure 30.01 in
Visibility 0.2 miles
Clouds
Dew Point 49 °F
Humidity 80%
Rainfall 0.00 in
Snow Depth Not available.
UV Not available.
Pollen 7.30 out of 12
Air Quality Not available.
Flu Activity Not available.
METAR KAPC 301754Z 00000KT 1/4SM FG VV002 09/09 A3003 RMK AO2 SLP160 T00890089 10089 20022 53001 $

More Conditions Fewer Conditions

Pressure 30.01 in
Visibility 0.2 miles
Clouds
Dew Point 49 °F
Humidity 80%
Rainfall 0.00 in
Snow Depth Not available.
UV Not available.
Pollen 7.30 out of 12
Air Quality Not available.
Flu Activity Not available.
METAR KAPC 301754Z 00000KT 1/4SM FG VV002 09/09 A3003 RMK AO2 SLP160 T00890089 10089 20022 53001 $

More Conditions Fewer Conditions

10-Day Weather Forecast

Almanac

Astronomy

Jan. 30, 2015 Rise Set
Actual Time
Civil Twilight
Nautical Twilight
Astronomical Twilight
Moon
Length of Visible Light
Length of Day
Tomorrow will be .
, % of the Moon is Illuminated

Today's Extremes

State Highs State Lows

Community

WunderPhotos

Upload Photos

1,791,857 photos uploaded!

WunderBlogs® & News

Nearby

Air Quality

  Air Quality AQ Index Pollutant
Not available.

Snow Depth

Station Depth Elevation

Earthquake Activity

City Distance Mag. Time & Date
Minimum magnitude displayed is 2.5.

Coastal Water Temperatures

Place Temperature

Nearby Weather Stations